createdAt,value
2023-04-09T00:02:37.044Z,98622.88
2023-04-09T00:07:38.939Z,98624.34
2023-04-09T00:12:40.847Z,98624.00
2023-04-09T00:17:42.673Z,98621.59
2023-04-09T00:22:44.506Z,98625.53
2023-04-09T00:27:46.585Z,98622.41
2023-04-09T00:32:48.876Z,98629.56
2023-04-09T00:37:50.860Z,98622.56
2023-04-09T00:42:52.715Z,98629.50
2023-04-09T00:47:54.701Z,98617.59
2023-04-09T00:52:56.711Z,98626.28
2023-04-09T00:57:58.665Z,98618.84
2023-04-09T01:03:01.187Z,98631.06
2023-04-09T01:08:35.753Z,98624.38
2023-04-09T01:13:56.011Z,98629.81
2023-04-09T01:19:23.916Z,98629.97
2023-04-09T01:24:31.842Z,98623.13
2023-04-09T01:29:37.378Z,98632.63
2023-04-09T01:34:42.375Z,98634.78
2023-04-09T01:39:45.238Z,98626.44
2023-04-09T01:44:47.323Z,98629.63
2023-04-09T01:49:49.478Z,98624.97
2023-04-09T01:54:51.421Z,98628.34
2023-04-09T01:59:54.616Z,98624.19
2023-04-09T02:04:58.758Z,98617.13
2023-04-09T02:10:01.845Z,98617.31
2023-04-09T02:15:05.970Z,98625.91
2023-04-09T02:20:08.394Z,98629.78
2023-04-09T02:25:10.403Z,98636.34
2023-04-09T02:30:12.873Z,98638.66
2023-04-09T02:35:15.392Z,98636.03
2023-04-09T02:40:17.362Z,98627.47
2023-04-09T02:45:19.223Z,98613.31
2023-04-09T02:50:21.237Z,98621.88
2023-04-09T02:55:26.281Z,98621.63
2023-04-09T03:00:28.191Z,98622.53
2023-04-09T03:05:30.819Z,98622.78
2023-04-09T03:10:32.746Z,98628.25
2023-04-09T03:15:34.680Z,98635.31
2023-04-09T03:20:39.695Z,98630.44
2023-04-09T03:25:44.594Z,98641.09
2023-04-09T03:30:49.497Z,98644.66
2023-04-09T03:35:51.908Z,98648.03
2023-04-09T03:41:02.444Z,98643.34
2023-04-09T03:46:17.807Z,98647.78
2023-04-09T03:51:22.541Z,98643.06
2023-04-09T03:56:30.374Z,98643.09
2023-04-09T04:01:33.550Z,98627.53
2023-04-09T04:06:36.532Z,98642.09
2023-04-09T04:11:58.939Z,98645.00
2023-04-09T04:17:14.745Z,98653.78
2023-04-09T04:22:16.867Z,98647.19
2023-04-09T04:27:21.368Z,98662.50
2023-04-09T04:32:23.398Z,98672.97
2023-04-09T04:37:27.096Z,98677.47
2023-04-09T04:42:33.571Z,98686.69
2023-04-09T04:47:39.344Z,98675.75
2023-04-09T04:52:41.364Z,98686.53
2023-04-09T04:57:43.946Z,98681.00
2023-04-09T05:02:46.785Z,98676.16
2023-04-09T05:07:57.982Z,98675.53
2023-04-09T05:12:59.832Z,98681.59
2023-04-09T05:18:08.841Z,98683.16
2023-04-09T05:23:12.580Z,98674.09
2023-04-09T05:28:21.996Z,98680.94
2023-04-09T05:33:38.343Z,98680.03
2023-04-09T05:38:48.024Z,98678.84
2023-04-09T05:43:50.290Z,98678.50
2023-04-09T05:48:53.022Z,98687.88
2023-04-09T05:53:56.455Z,98689.31
2023-04-09T05:58:58.605Z,98694.41
2023-04-09T06:04:00.973Z,98703.47
2023-04-09T06:09:05.813Z,98699.84
2023-04-09T06:14:08.006Z,98703.78
2023-04-09T06:19:09.868Z,98711.41
2023-04-09T06:24:11.956Z,98707.94
2023-04-09T06:29:14.153Z,98710.06
2023-04-09T06:34:16.249Z,98720.03
2023-04-09T06:39:18.220Z,98724.66
2023-04-09T06:44:21.525Z,98726.72
2023-04-09T06:49:23.371Z,98735.75
2023-04-09T06:54:25.361Z,98740.81
2023-04-09T06:59:27.199Z,98739.06
2023-04-09T07:04:29.185Z,98741.13
2023-04-09T07:09:31.662Z,98738.63
2023-04-09T07:14:33.599Z,98735.75
2023-04-09T07:19:35.415Z,98737.63
2023-04-09T07:24:37.236Z,98733.63
2023-04-09T07:29:39.035Z,98727.78
2023-04-09T07:34:41.520Z,98732.94
2023-04-09T07:39:43.358Z,98730.78
2023-04-09T07:44:45.148Z,98724.47
2023-04-09T07:49:47.157Z,98722.59
2023-04-09T07:54:49.025Z,98729.53
2023-04-09T07:59:53.519Z,98729.84
2023-04-09T08:04:55.387Z,98721.06
2023-04-09T08:09:57.269Z,98727.25
2023-04-09T08:14:59.133Z,98725.63
2023-04-09T08:20:01.288Z,98728.22
2023-04-09T08:25:03.188Z,98729.72
2023-04-09T08:30:05.470Z,98733.25
2023-04-09T08:35:08.020Z,98731.56
2023-04-09T08:40:12.065Z,98727.19
2023-04-09T08:45:14.123Z,98715.25
2023-04-09T08:50:16.262Z,98715.09
2023-04-09T08:55:18.076Z,98711.66
2023-04-09T09:00:19.846Z,98713.81
2023-04-09T09:05:36.230Z,98712.53
2023-04-09T09:10:43.403Z,98712.94
2023-04-09T09:15:47.726Z,98718.06
2023-04-09T09:20:49.553Z,98708.75
2023-04-09T09:25:51.346Z,98705.47
2023-04-09T09:30:53.232Z,98703.31
2023-04-09T09:35:56.987Z,98707.88
2023-04-09T09:40:59.133Z,98714.06
2023-04-09T09:46:01.521Z,98707.91
2023-04-09T09:51:08.771Z,98706.19
2023-04-09T09:56:18.990Z,98698.84
2023-04-09T10:01:24.411Z,98692.84
2023-04-09T10:06:27.631Z,98692.66
2023-04-09T10:11:29.839Z,98692.97
2023-04-09T10:16:32.948Z,98691.34
2023-04-09T10:21:59.616Z,98687.66
2023-04-09T10:27:16.978Z,98681.63
2023-04-09T10:32:26.493Z,98677.47
2023-04-09T10:37:28.904Z,98673.00
2023-04-09T10:42:35.637Z,98675.44
2023-04-09T10:47:39.908Z,98676.09
2023-04-09T10:52:42.579Z,98668.44
2023-04-09T10:57:44.375Z,98674.09
2023-04-09T11:03:05.816Z,98658.03
2023-04-09T11:08:13.278Z,98657.06
2023-04-09T11:13:17.112Z,98667.16
2023-04-09T11:18:30.062Z,98653.19
2023-04-09T11:23:32.949Z,98650.03
2023-04-09T11:28:35.076Z,98651.53
2023-04-09T11:33:36.940Z,98652.22
2023-04-09T11:38:39.216Z,98656.16
2023-04-09T11:43:41.206Z,98657.63
2023-04-09T11:48:43.137Z,98653.88
2023-04-09T11:53:44.952Z,98653.97
2023-04-09T11:58:48.433Z,98655.38
2023-04-09T12:03:57.263Z,98652.72
2023-04-09T12:08:59.864Z,98653.66
2023-04-09T12:14:05.707Z,98659.34
2023-04-09T12:19:08.589Z,98658.41
2023-04-09T12:24:10.531Z,98655.59
2023-04-09T12:29:14.563Z,98648.41
2023-04-09T12:34:16.375Z,98659.00
2023-04-09T12:39:18.260Z,98659.75
2023-04-09T12:44:20.078Z,98647.22
2023-04-09T12:49:21.888Z,98650.75
2023-04-09T12:54:23.782Z,98638.25
2023-04-09T12:59:26.202Z,98637.47
2023-04-09T13:04:28.169Z,98643.69
2023-04-09T13:09:30.156Z,98643.44
2023-04-09T13:14:32.179Z,98639.19
2023-04-09T13:19:35.564Z,98630.19
2023-04-09T13:24:43.644Z,98624.00
2023-04-09T13:29:45.749Z,98620.69
2023-04-09T13:34:47.421Z,98633.16
2023-04-09T13:39:50.470Z,98625.16
2023-04-09T13:44:52.179Z,98626.94
2023-04-09T13:49:53.905Z,98621.63
2023-04-09T13:54:55.570Z,98609.13
2023-04-09T13:59:57.218Z,98608.53
2023-04-09T14:04:58.884Z,98597.59
2023-04-09T14:10:02.937Z,98593.84
2023-04-09T14:15:05.393Z,98591.88
2023-04-09T14:20:07.942Z,98589.53
2023-04-09T14:25:20.435Z,98590.06
2023-04-09T14:30:46.705Z,98589.72
2023-04-09T14:35:48.746Z,98587.78
2023-04-09T14:40:51.140Z,98584.13
2023-04-09T14:46:07.419Z,98591.13
2023-04-09T14:51:16.870Z,98581.03
2023-04-09T14:56:22.508Z,98574.72
2023-04-09T15:01:34.312Z,98572.75
2023-04-09T15:06:43.832Z,98577.66
2023-04-09T15:17:54.086Z,98561.94
2023-04-09T15:22:55.948Z,98561.03
2023-04-09T15:27:58.935Z,98562.91
2023-04-09T15:33:00.790Z,98559.25
2023-04-09T15:38:02.450Z,98557.44
2023-04-09T15:43:04.175Z,98566.25
2023-04-09T15:48:06.146Z,98564.00
2023-04-09T15:53:07.846Z,98574.94
2023-04-09T15:58:09.582Z,98576.53
2023-04-09T16:03:11.225Z,98573.44
2023-04-09T16:08:13.013Z,98573.25
2023-04-09T16:13:14.644Z,98583.53
2023-04-09T16:18:17.158Z,98580.38
2023-04-09T16:23:18.805Z,98586.91
2023-04-09T16:28:21.984Z,98585.06
2023-04-09T16:33:23.589Z,98585.09
2023-04-09T16:38:27.538Z,98587.19
2023-04-09T16:43:30.247Z,98593.81
2023-04-09T16:48:32.377Z,98590.84
2023-04-09T16:53:38.321Z,98589.34
2023-04-09T16:58:40.577Z,98587.53
2023-04-09T17:03:42.283Z,98587.41
2023-04-09T17:08:44.028Z,98582.13
2023-04-09T17:13:45.717Z,98584.38
2023-04-09T17:18:47.666Z,98582.03
2023-04-09T17:23:49.443Z,98587.38
2023-04-09T17:28:52.413Z,98591.94
2023-04-09T17:33:54.324Z,98595.22
2023-04-09T17:38:56.645Z,98593.19
2023-04-09T17:43:58.320Z,98591.53
2023-04-09T17:48:59.969Z,98598.84
2023-04-09T17:54:01.697Z,98605.34
2023-04-09T17:59:03.448Z,98597.47
2023-04-09T18:04:05.675Z,98604.84
2023-04-09T18:09:07.646Z,98612.75
2023-04-09T18:14:09.610Z,98614.03
2023-04-09T18:19:11.886Z,98625.28
2023-04-09T18:24:13.504Z,98625.19
2023-04-09T18:29:15.725Z,98626.28
2023-04-09T18:34:17.372Z,98630.53
2023-04-09T18:39:19.668Z,98631.31
2023-04-09T18:44:21.310Z,98638.59
2023-04-09T18:49:22.938Z,98642.03
2023-04-09T18:54:25.603Z,98635.34
2023-04-09T18:59:27.239Z,98641.13
2023-04-09T19:04:30.326Z,98646.56
2023-04-09T19:09:32.734Z,98650.47
2023-04-09T19:14:36.388Z,98644.91
2023-04-09T19:19:38.236Z,98645.97
2023-04-09T19:24:43.113Z,98642.59
2023-04-09T19:29:46.316Z,98654.50
2023-04-09T19:34:48.209Z,98642.56
2023-04-09T19:39:50.058Z,98642.91
2023-04-09T19:44:51.974Z,98656.34
2023-04-09T19:49:54.597Z,98654.09
2023-04-09T19:54:56.798Z,98645.03
2023-04-09T19:59:58.680Z,98642.06
2023-04-09T20:05:00.586Z,98643.75
2023-04-09T20:10:03.080Z,98642.22
2023-04-09T20:15:05.802Z,98641.94
2023-04-09T20:20:08.622Z,98638.19
2023-04-09T20:25:11.978Z,98641.63
2023-04-09T20:30:14.117Z,98638.38
2023-04-09T20:35:16.022Z,98634.19
2023-04-09T20:40:17.866Z,98646.47
2023-04-09T20:45:19.823Z,98649.53
2023-04-09T20:50:21.916Z,98661.03
2023-04-09T20:55:24.493Z,98650.91
2023-04-09T21:00:26.286Z,98642.81
2023-04-09T21:05:28.451Z,98647.22
2023-04-09T21:10:30.634Z,98644.44
2023-04-09T21:15:32.413Z,98643.75
2023-04-09T21:20:34.262Z,98646.72
2023-04-09T21:25:36.124Z,98652.47
2023-04-09T21:30:38.207Z,98643.31
2023-04-09T21:35:40.089Z,98636.44
2023-04-09T21:40:41.918Z,98641.44
2023-04-09T21:45:43.941Z,98651.63
2023-04-09T21:50:45.934Z,98646.59
2023-04-09T21:55:47.846Z,98646.72
2023-04-09T22:00:49.709Z,98644.75
2023-04-09T22:05:51.530Z,98638.25
2023-04-09T22:10:53.322Z,98639.75
2023-04-09T22:15:55.146Z,98655.72
2023-04-09T22:20:56.987Z,98653.84
2023-04-09T22:26:01.027Z,98647.34
2023-04-09T22:31:03.579Z,98644.25
2023-04-09T22:36:05.810Z,98640.56
2023-04-09T22:41:07.636Z,98634.78
2023-04-09T22:46:09.535Z,98636.00
2023-04-09T22:51:11.453Z,98639.03
2023-04-09T22:56:13.578Z,98628.88
2023-04-09T23:01:15.486Z,98636.34
2023-04-09T23:06:17.388Z,98637.50
2023-04-09T23:11:19.234Z,98631.91
2023-04-09T23:16:21.980Z,98636.31
2023-04-09T23:21:23.831Z,98633.38
2023-04-09T23:26:25.637Z,98631.72
2023-04-09T23:31:27.671Z,98638.06
2023-04-09T23:36:29.486Z,98635.88
2023-04-09T23:41:31.276Z,98626.50
2023-04-09T23:46:33.124Z,98625.09
2023-04-09T23:51:35.102Z,98631.13
2023-04-09T23:56:37.576Z,98626.03
